sensor_id;sensor_type;location;lat;lon;timestamp;temperature;humidity
37906;DHT22;23739;51.448;6.674;2022-10-31T00:02:11;13.90;99.90
37906;DHT22;23739;51.448;6.674;2022-10-31T00:04:36;13.90;99.90
37906;DHT22;23739;51.448;6.674;2022-10-31T00:07:02;13.90;99.90
37906;DHT22;23739;51.448;6.674;2022-10-31T00:09:28;13.90;99.90
37906;DHT22;23739;51.448;6.674;2022-10-31T00:11:54;13.90;99.90
37906;DHT22;23739;51.448;6.674;2022-10-31T00:14:19;13.80;99.90
37906;DHT22;23739;51.448;6.674;2022-10-31T00:16:45;13.80;99.90
37906;DHT22;23739;51.448;6.674;2022-10-31T00:19:11;13.80;99.90
37906;DHT22;23739;51.448;6.674;2022-10-31T00:21:37;13.80;99.90
37906;DHT22;23739;51.448;6.674;2022-10-31T00:24:03;13.80;99.90
37906;DHT22;23739;51.448;6.674;2022-10-31T00:26:30;13.80;99.90
37906;DHT22;23739;51.448;6.674;2022-10-31T00:28:57;13.70;99.90
37906;DHT22;23739;51.448;6.674;2022-10-31T00:31:23;13.70;99.90
37906;DHT22;23739;51.448;6.674;2022-10-31T00:33:49;13.70;99.90
37906;DHT22;23739;51.448;6.674;2022-10-31T00:36:17;13.70;99.90
37906;DHT22;23739;51.448;6.674;2022-10-31T00:38:43;13.70;99.90
37906;DHT22;23739;51.448;6.674;2022-10-31T00:41:10;13.70;99.90
37906;DHT22;23739;51.448;6.674;2022-10-31T00:43:36;13.60;99.90
37906;DHT22;23739;51.448;6.674;2022-10-31T00:46:02;13.70;99.90
37906;DHT22;23739;51.448;6.674;2022-10-31T00:48:28;13.60;99.90
37906;DHT22;23739;51.448;6.674;2022-10-31T00:50:54;13.70;99.90
37906;DHT22;23739;51.448;6.674;2022-10-31T00:53:20;13.70;99.90
37906;DHT22;23739;51.448;6.674;2022-10-31T00:55:46;13.70;99.90
37906;DHT22;23739;51.448;6.674;2022-10-31T00:58:12;13.70;99.90
37906;DHT22;23739;51.448;6.674;2022-10-31T01:00:37;13.70;99.90
37906;DHT22;23739;51.448;6.674;2022-10-31T01:03:03;13.70;99.90
37906;DHT22;23739;51.448;6.674;2022-10-31T01:05:29;13.60;99.90
37906;DHT22;23739;51.448;6.674;2022-10-31T01:07:55;13.50;99.90
37906;DHT22;23739;51.448;6.674;2022-10-31T01:10:21;13.50;99.90
37906;DHT22;23739;51.448;6.674;2022-10-31T01:12:47;13.50;99.90
37906;DHT22;23739;51.448;6.674;2022-10-31T01:15:16;13.40;99.90
37906;DHT22;23739;51.448;6.674;2022-10-31T01:17:42;13.40;99.90
37906;DHT22;23739;51.448;6.674;2022-10-31T01:20:09;13.30;99.90
37906;DHT22;23739;51.448;6.674;2022-10-31T01:22:35;13.30;99.90
37906;DHT22;23739;51.448;6.674;2022-10-31T01:25:01;13.30;99.90
37906;DHT22;23739;51.448;6.674;2022-10-31T01:27:27;13.30;99.90
37906;DHT22;23739;51.448;6.674;2022-10-31T01:29:53;13.10;99.90
37906;DHT22;23739;51.448;6.674;2022-10-31T01:32:19;13.10;99.90
37906;DHT22;23739;51.448;6.674;2022-10-31T01:34:44;13.10;99.90
37906;DHT22;23739;51.448;6.674;2022-10-31T01:37:10;13.00;99.90
37906;DHT22;23739;51.448;6.674;2022-10-31T01:39:36;13.00;99.90
37906;DHT22;23739;51.448;6.674;2022-10-31T01:42:02;13.00;99.90
37906;DHT22;23739;51.448;6.674;2022-10-31T01:46:55;13.00;99.90
37906;DHT22;23739;51.448;6.674;2022-10-31T01:49:49;12.90;99.90
37906;DHT22;23739;51.448;6.674;2022-10-31T01:52:32;12.90;99.90
37906;DHT22;23739;51.448;6.674;2022-10-31T01:55:04;12.90;99.90
37906;DHT22;23739;51.448;6.674;2022-10-31T01:57:33;12.90;99.90
37906;DHT22;23739;51.448;6.674;2022-10-31T02:00:03;12.80;99.90
37906;DHT22;23739;51.448;6.674;2022-10-31T02:02:30;12.70;99.90
37906;DHT22;23739;51.448;6.674;2022-10-31T02:04:58;12.70;99.90
37906;DHT22;23739;51.448;6.674;2022-10-31T02:07:34;12.70;99.90
37906;DHT22;23739;51.448;6.674;2022-10-31T02:10:02;12.80;99.90
37906;DHT22;23739;51.448;6.674;2022-10-31T02:12:30;12.80;99.90
37906;DHT22;23739;51.448;6.674;2022-10-31T02:14:56;12.80;99.90
37906;DHT22;23739;51.448;6.674;2022-10-31T02:17:22;12.70;99.90
37906;DHT22;23739;51.448;6.674;2022-10-31T02:19:56;12.70;99.90
37906;DHT22;23739;51.448;6.674;2022-10-31T02:25:16;12.60;99.90
37906;DHT22;23739;51.448;6.674;2022-10-31T02:28:00;12.60;99.90
37906;DHT22;23739;51.448;6.674;2022-10-31T02:31:22;12.50;99.90
37906;DHT22;23739;51.448;6.674;2022-10-31T02:36:43;12.50;99.90
37906;DHT22;23739;51.448;6.674;2022-10-31T02:39:28;12.40;99.90
37906;DHT22;23739;51.448;6.674;2022-10-31T02:47:17;12.30;99.90
37906;DHT22;23739;51.448;6.674;2022-10-31T02:52:32;12.30;99.90
37906;DHT22;23739;51.448;6.674;2022-10-31T02:54:58;12.20;99.90
37906;DHT22;23739;51.448;6.674;2022-10-31T02:57:32;12.20;99.90
37906;DHT22;23739;51.448;6.674;2022-10-31T03:00:05;12.20;99.90
37906;DHT22;23739;51.448;6.674;2022-10-31T03:10:58;12.10;99.90
37906;DHT22;23739;51.448;6.674;2022-10-31T03:13:47;12.10;99.90
37906;DHT22;23739;51.448;6.674;2022-10-31T03:23:58;12.00;99.90
37906;DHT22;23739;51.448;6.674;2022-10-31T03:26:25;11.90;99.90
37906;DHT22;23739;51.448;6.674;2022-10-31T03:29:02;11.90;99.90
37906;DHT22;23739;51.448;6.674;2022-10-31T03:31:50;11.90;99.90
37906;DHT22;23739;51.448;6.674;2022-10-31T03:34:18;11.90;99.90
37906;DHT22;23739;51.448;6.674;2022-10-31T03:36:46;11.80;99.90
37906;DHT22;23739;51.448;6.674;2022-10-31T03:39:14;11.80;99.90
37906;DHT22;23739;51.448;6.674;2022-10-31T03:41:46;11.70;99.90
37906;DHT22;23739;51.448;6.674;2022-10-31T03:44:15;11.70;99.90
37906;DHT22;23739;51.448;6.674;2022-10-31T03:46:42;11.70;99.90
37906;DHT22;23739;51.448;6.674;2022-10-31T03:49:09;11.60;99.90
37906;DHT22;23739;51.448;6.674;2022-10-31T03:59:32;11.70;99.90
37906;DHT22;23739;51.448;6.674;2022-10-31T04:02:05;11.60;99.90
37906;DHT22;23739;51.448;6.674;2022-10-31T04:04:33;11.60;99.90
37906;DHT22;23739;51.448;6.674;2022-10-31T04:07:01;11.70;99.90
37906;DHT22;23739;51.448;6.674;2022-10-31T04:09:28;11.70;99.90
37906;DHT22;23739;51.448;6.674;2022-10-31T04:11:58;11.80;99.90
37906;DHT22;23739;51.448;6.674;2022-10-31T04:14:27;11.70;99.90
37906;DHT22;23739;51.448;6.674;2022-10-31T04:16:54;11.70;99.90
37906;DHT22;23739;51.448;6.674;2022-10-31T04:19:20;11.80;99.90
37906;DHT22;23739;51.448;6.674;2022-10-31T04:21:46;11.80;99.90
37906;DHT22;23739;51.448;6.674;2022-10-31T04:24:12;11.80;99.90
37906;DHT22;23739;51.448;6.674;2022-10-31T04:26:37;11.80;99.90
37906;DHT22;23739;51.448;6.674;2022-10-31T04:29:03;11.80;99.90
37906;DHT22;23739;51.448;6.674;2022-10-31T04:31:29;11.80;99.90
37906;DHT22;23739;51.448;6.674;2022-10-31T04:33:54;11.90;99.90
37906;DHT22;23739;51.448;6.674;2022-10-31T04:36:20;11.90;99.90
37906;DHT22;23739;51.448;6.674;2022-10-31T04:38:46;12.00;99.90
37906;DHT22;23739;51.448;6.674;2022-10-31T04:41:12;12.10;99.90
37906;DHT22;23739;51.448;6.674;2022-10-31T04:43:37;12.10;99.90
37906;DHT22;23739;51.448;6.674;2022-10-31T04:46:03;12.20;99.90
37906;DHT22;23739;51.448;6.674;2022-10-31T04:48:29;12.30;99.90
37906;DHT22;23739;51.448;6.674;2022-10-31T04:50:59;12.30;99.90
37906;DHT22;23739;51.448;6.674;2022-10-31T04:53:25;12.30;99.90
37906;DHT22;23739;51.448;6.674;2022-10-31T04:55:51;12.30;99.90
37906;DHT22;23739;51.448;6.674;2022-10-31T04:58:17;12.30;99.90
37906;DHT22;23739;51.448;6.674;2022-10-31T05:00:43;12.20;99.90
37906;DHT22;23739;51.448;6.674;2022-10-31T05:03:08;12.20;99.90
37906;DHT22;23739;51.448;6.674;2022-10-31T05:05:34;12.10;99.90
37906;DHT22;23739;51.448;6.674;2022-10-31T05:08:00;12.00;99.90
37906;DHT22;23739;51.448;6.674;2022-10-31T05:10:28;12.00;99.90
37906;DHT22;23739;51.448;6.674;2022-10-31T05:12:59;11.90;99.90
37906;DHT22;23739;51.448;6.674;2022-10-31T05:15:26;11.90;99.90
37906;DHT22;23739;51.448;6.674;2022-10-31T05:17:53;11.80;99.90
37906;DHT22;23739;51.448;6.674;2022-10-31T05:20:21;11.80;99.90
37906;DHT22;23739;51.448;6.674;2022-10-31T05:22:49;11.80;99.90
37906;DHT22;23739;51.448;6.674;2022-10-31T05:25:16;11.80;99.90
37906;DHT22;23739;51.448;6.674;2022-10-31T05:27:45;11.90;99.90
37906;DHT22;23739;51.448;6.674;2022-10-31T05:30:13;11.80;99.90
37906;DHT22;23739;51.448;6.674;2022-10-31T05:32:39;11.80;99.90
37906;DHT22;23739;51.448;6.674;2022-10-31T05:35:07;11.70;99.90
37906;DHT22;23739;51.448;6.674;2022-10-31T05:37:34;11.70;99.90
37906;DHT22;23739;51.448;6.674;2022-10-31T05:40:02;11.70;99.90
37906;DHT22;23739;51.448;6.674;2022-10-31T05:42:28;11.60;99.90
37906;DHT22;23739;51.448;6.674;2022-10-31T05:44:54;11.60;99.90
37906;DHT22;23739;51.448;6.674;2022-10-31T05:47:19;11.60;99.90
37906;DHT22;23739;51.448;6.674;2022-10-31T05:49:45;11.60;99.90
37906;DHT22;23739;51.448;6.674;2022-10-31T05:52:10;11.50;99.90
37906;DHT22;23739;51.448;6.674;2022-10-31T05:54:36;11.60;99.90
37906;DHT22;23739;51.448;6.674;2022-10-31T05:57:02;11.60;99.90
37906;DHT22;23739;51.448;6.674;2022-10-31T05:59:28;11.50;99.90
37906;DHT22;23739;51.448;6.674;2022-10-31T06:01:53;11.50;99.90
37906;DHT22;23739;51.448;6.674;2022-10-31T06:04:19;11.40;99.90
37906;DHT22;23739;51.448;6.674;2022-10-31T06:06:45;11.40;99.90
37906;DHT22;23739;51.448;6.674;2022-10-31T06:09:11;11.40;99.90
37906;DHT22;23739;51.448;6.674;2022-10-31T06:11:36;11.40;99.90
37906;DHT22;23739;51.448;6.674;2022-10-31T06:14:03;11.40;99.90
37906;DHT22;23739;51.448;6.674;2022-10-31T06:16:28;11.40;99.90
37906;DHT22;23739;51.448;6.674;2022-10-31T06:18:54;11.30;99.90
37906;DHT22;23739;51.448;6.674;2022-10-31T06:21:20;11.30;99.90
37906;DHT22;23739;51.448;6.674;2022-10-31T06:23:46;11.30;99.90
37906;DHT22;23739;51.448;6.674;2022-10-31T06:26:11;11.30;99.90
37906;DHT22;23739;51.448;6.674;2022-10-31T06:28:37;11.30;99.90
37906;DHT22;23739;51.448;6.674;2022-10-31T06:31:03;11.40;99.90
37906;DHT22;23739;51.448;6.674;2022-10-31T06:33:29;11.40;99.90
37906;DHT22;23739;51.448;6.674;2022-10-31T06:35:54;11.40;99.90
37906;DHT22;23739;51.448;6.674;2022-10-31T06:38:20;11.40;99.90
37906;DHT22;23739;51.448;6.674;2022-10-31T06:40:46;11.30;99.90
37906;DHT22;23739;51.448;6.674;2022-10-31T06:43:11;11.30;99.90
37906;DHT22;23739;51.448;6.674;2022-10-31T06:45:38;11.30;99.90
37906;DHT22;23739;51.448;6.674;2022-10-31T06:48:04;11.30;99.90
37906;DHT22;23739;51.448;6.674;2022-10-31T06:50:29;11.30;99.90
37906;DHT22;23739;51.448;6.674;2022-10-31T06:52:57;11.70;99.90
37906;DHT22;23739;51.448;6.674;2022-10-31T06:55:24;11.30;99.90
37906;DHT22;23739;51.448;6.674;2022-10-31T06:57:51;11.40;99.90
37906;DHT22;23739;51.448;6.674;2022-10-31T07:00:17;11.50;99.90
37906;DHT22;23739;51.448;6.674;2022-10-31T07:02:43;11.50;99.90
37906;DHT22;23739;51.448;6.674;2022-10-31T07:05:09;11.40;99.90
37906;DHT22;23739;51.448;6.674;2022-10-31T07:07:35;11.50;99.90
37906;DHT22;23739;51.448;6.674;2022-10-31T07:13:23;11.50;99.90
37906;DHT22;23739;51.448;6.674;2022-10-31T07:16:00;11.50;99.90
37906;DHT22;23739;51.448;6.674;2022-10-31T07:18:26;11.50;99.90
37906;DHT22;23739;51.448;6.674;2022-10-31T07:20:52;11.60;99.90
37906;DHT22;23739;51.448;6.674;2022-10-31T07:23:18;11.60;99.90
37906;DHT22;23739;51.448;6.674;2022-10-31T07:25:44;11.50;99.90
37906;DHT22;23739;51.448;6.674;2022-10-31T07:28:10;11.60;99.90
37906;DHT22;23739;51.448;6.674;2022-10-31T07:30:37;11.60;99.90
37906;DHT22;23739;51.448;6.674;2022-10-31T07:33:03;11.60;99.90
37906;DHT22;23739;51.448;6.674;2022-10-31T07:35:30;11.70;99.90
37906;DHT22;23739;51.448;6.674;2022-10-31T07:37:56;11.70;99.90
37906;DHT22;23739;51.448;6.674;2022-10-31T07:40:23;11.80;99.90
37906;DHT22;23739;51.448;6.674;2022-10-31T07:42:51;11.90;99.90
37906;DHT22;23739;51.448;6.674;2022-10-31T07:45:19;12.00;99.90
37906;DHT22;23739;51.448;6.674;2022-10-31T07:47:50;12.10;99.90
37906;DHT22;23739;51.448;6.674;2022-10-31T07:50:18;12.20;99.90
37906;DHT22;23739;51.448;6.674;2022-10-31T07:52:44;12.20;99.90
37906;DHT22;23739;51.448;6.674;2022-10-31T07:55:10;12.30;99.90
37906;DHT22;23739;51.448;6.674;2022-10-31T07:57:36;12.40;99.90
37906;DHT22;23739;51.448;6.674;2022-10-31T08:00:07;12.50;99.90
37906;DHT22;23739;51.448;6.674;2022-10-31T08:02:33;12.50;99.90
37906;DHT22;23739;51.448;6.674;2022-10-31T08:04:59;12.60;99.90
37906;DHT22;23739;51.448;6.674;2022-10-31T08:07:27;12.70;99.90
37906;DHT22;23739;51.448;6.674;2022-10-31T08:09:54;12.70;99.90
37906;DHT22;23739;51.448;6.674;2022-10-31T08:12:20;12.80;99.90
37906;DHT22;23739;51.448;6.674;2022-10-31T08:14:46;12.80;99.90
37906;DHT22;23739;51.448;6.674;2022-10-31T08:17:12;12.90;99.90
37906;DHT22;23739;51.448;6.674;2022-10-31T08:19:38;12.90;99.90
37906;DHT22;23739;51.448;6.674;2022-10-31T08:22:04;13.00;99.90
37906;DHT22;23739;51.448;6.674;2022-10-31T08:24:29;13.00;99.90
37906;DHT22;23739;51.448;6.674;2022-10-31T08:26:55;13.10;99.90
37906;DHT22;23739;51.448;6.674;2022-10-31T08:29:21;13.20;99.90
37906;DHT22;23739;51.448;6.674;2022-10-31T08:31:46;13.30;99.90
37906;DHT22;23739;51.448;6.674;2022-10-31T08:34:12;13.30;99.90
37906;DHT22;23739;51.448;6.674;2022-10-31T08:36:38;13.40;99.90
37906;DHT22;23739;51.448;6.674;2022-10-31T08:39:04;13.50;99.90
37906;DHT22;23739;51.448;6.674;2022-10-31T08:41:30;13.60;99.90
37906;DHT22;23739;51.448;6.674;2022-10-31T08:43:56;13.60;99.90
37906;DHT22;23739;51.448;6.674;2022-10-31T08:46:22;13.70;99.90
37906;DHT22;23739;51.448;6.674;2022-10-31T08:48:49;13.80;99.90
37906;DHT22;23739;51.448;6.674;2022-10-31T08:51:16;14.00;99.90
37906;DHT22;23739;51.448;6.674;2022-10-31T08:53:42;14.10;99.90
37906;DHT22;23739;51.448;6.674;2022-10-31T08:56:08;14.20;99.90
37906;DHT22;23739;51.448;6.674;2022-10-31T08:58:34;14.40;99.90
37906;DHT22;23739;51.448;6.674;2022-10-31T09:01:00;14.50;99.90
37906;DHT22;23739;51.448;6.674;2022-10-31T09:03:29;14.50;99.90
37906;DHT22;23739;51.448;6.674;2022-10-31T09:05:59;14.60;99.90
37906;DHT22;23739;51.448;6.674;2022-10-31T09:08:25;14.60;99.90
37906;DHT22;23739;51.448;6.674;2022-10-31T09:10:51;14.60;99.90
37906;DHT22;23739;51.448;6.674;2022-10-31T09:13:19;14.70;99.90
37906;DHT22;23739;51.448;6.674;2022-10-31T09:15:46;14.80;99.90
37906;DHT22;23739;51.448;6.674;2022-10-31T09:18:14;14.80;99.90
37906;DHT22;23739;51.448;6.674;2022-10-31T09:20:41;14.80;99.90
37906;DHT22;23739;51.448;6.674;2022-10-31T09:23:16;14.90;99.90
37906;DHT22;23739;51.448;6.674;2022-10-31T09:25:44;14.80;99.90
37906;DHT22;23739;51.448;6.674;2022-10-31T09:28:12;14.80;99.90
37906;DHT22;23739;51.448;6.674;2022-10-31T09:30:38;14.80;99.90
37906;DHT22;23739;51.448;6.674;2022-10-31T09:33:11;14.90;99.90
37906;DHT22;23739;51.448;6.674;2022-10-31T09:35:38;15.00;99.90
37906;DHT22;23739;51.448;6.674;2022-10-31T09:38:06;15.00;99.90
37906;DHT22;23739;51.448;6.674;2022-10-31T09:40:43;15.10;99.90
37906;DHT22;23739;51.448;6.674;2022-10-31T09:43:37;15.00;99.90
37906;DHT22;23739;51.448;6.674;2022-10-31T09:46:13;15.10;99.90
37906;DHT22;23739;51.448;6.674;2022-10-31T09:56:41;15.20;99.90
37906;DHT22;23739;51.448;6.674;2022-10-31T09:59:33;15.40;99.90
37906;DHT22;23739;51.448;6.674;2022-10-31T10:02:05;15.50;99.90
37906;DHT22;23739;51.448;6.674;2022-10-31T10:10:00;16.30;99.90
37906;DHT22;23739;51.448;6.674;2022-10-31T10:12:44;16.30;99.90
37906;DHT22;23739;51.448;6.674;2022-10-31T10:26:43;16.70;99.90
37906;DHT22;23739;51.448;6.674;2022-10-31T10:32:31;16.80;99.90
37906;DHT22;23739;51.448;6.674;2022-10-31T10:35:50;16.80;99.90
37906;DHT22;23739;51.448;6.674;2022-10-31T10:38:20;17.10;99.90
37906;DHT22;23739;51.448;6.674;2022-10-31T10:40:42;17.50;99.90
37906;DHT22;23739;51.448;6.674;2022-10-31T10:49:15;17.50;99.90
37906;DHT22;23739;51.448;6.674;2022-10-31T10:52:04;17.50;99.90
37906;DHT22;23739;51.448;6.674;2022-10-31T10:57:18;17.80;99.90
37906;DHT22;23739;51.448;6.674;2022-10-31T10:59:46;18.10;99.90
37906;DHT22;23739;51.448;6.674;2022-10-31T11:02:25;17.90;99.90
37906;DHT22;23739;51.448;6.674;2022-10-31T11:04:55;17.70;99.90
37906;DHT22;23739;51.448;6.674;2022-10-31T11:07:22;17.70;99.90
37906;DHT22;23739;51.448;6.674;2022-10-31T11:09:48;18.00;99.90
37906;DHT22;23739;51.448;6.674;2022-10-31T11:12:22;18.10;99.90
37906;DHT22;23739;51.448;6.674;2022-10-31T11:14:55;18.00;99.90
37906;DHT22;23739;51.448;6.674;2022-10-31T11:22:37;18.20;99.90
37906;DHT22;23739;51.448;6.674;2022-10-31T11:25:26;18.30;99.90
37906;DHT22;23739;51.448;6.674;2022-10-31T11:30:26;18.10;99.90
37906;DHT22;23739;51.448;6.674;2022-10-31T11:32:52;18.20;99.90
37906;DHT22;23739;51.448;6.674;2022-10-31T11:35:20;18.20;99.90
37906;DHT22;23739;51.448;6.674;2022-10-31T11:37:49;18.40;99.90
37906;DHT22;23739;51.448;6.674;2022-10-31T11:40:24;18.20;99.90
37906;DHT22;23739;51.448;6.674;2022-10-31T11:42:52;18.20;99.90
37906;DHT22;23739;51.448;6.674;2022-10-31T11:45:32;18.50;99.90
37906;DHT22;23739;51.448;6.674;2022-10-31T11:48:00;18.40;99.90
37906;DHT22;23739;51.448;6.674;2022-10-31T11:50:36;18.50;99.90
37906;DHT22;23739;51.448;6.674;2022-10-31T11:53:11;18.50;99.90
37906;DHT22;23739;51.448;6.674;2022-10-31T11:55:40;18.50;99.90
37906;DHT22;23739;51.448;6.674;2022-10-31T11:58:22;18.60;99.90
37906;DHT22;23739;51.448;6.674;2022-10-31T12:00:54;18.70;99.90
37906;DHT22;23739;51.448;6.674;2022-10-31T12:08:30;19.00;99.90
37906;DHT22;23739;51.448;6.674;2022-10-31T12:16:39;19.20;99.90
37906;DHT22;23739;51.448;6.674;2022-10-31T12:30:21;19.60;99.90
37906;DHT22;23739;51.448;6.674;2022-10-31T12:35:40;19.30;99.90
37906;DHT22;23739;51.448;6.674;2022-10-31T12:41:26;19.50;99.90
37906;DHT22;23739;51.448;6.674;2022-10-31T12:49:33;20.20;99.90
37906;DHT22;23739;51.448;6.674;2022-10-31T12:57:50;20.40;99.90
37906;DHT22;23739;51.448;6.674;2022-10-31T13:00:19;20.60;99.90
37906;DHT22;23739;51.448;6.674;2022-10-31T13:03:19;20.70;99.90
37906;DHT22;23739;51.448;6.674;2022-10-31T13:06:01;20.50;99.90
37906;DHT22;23739;51.448;6.674;2022-10-31T13:08:55;20.80;99.90
37906;DHT22;23739;51.448;6.674;2022-10-31T13:11:32;20.90;99.90
37906;DHT22;23739;51.448;6.674;2022-10-31T13:16:38;20.80;99.90
37906;DHT22;23739;51.448;6.674;2022-10-31T13:19:34;20.80;99.90
37906;DHT22;23739;51.448;6.674;2022-10-31T13:22:20;20.80;99.90
37906;DHT22;23739;51.448;6.674;2022-10-31T13:25:02;20.70;99.90
37906;DHT22;23739;51.448;6.674;2022-10-31T13:28:01;20.80;99.90
37906;DHT22;23739;51.448;6.674;2022-10-31T13:30:36;20.70;99.90
37906;DHT22;23739;51.448;6.674;2022-10-31T13:33:16;20.60;99.90
37906;DHT22;23739;51.448;6.674;2022-10-31T13:38:33;20.90;99.90
37906;DHT22;23739;51.448;6.674;2022-10-31T13:46:44;20.60;99.90
37906;DHT22;23739;51.448;6.674;2022-10-31T13:52:15;20.60;99.90
37906;DHT22;23739;51.448;6.674;2022-10-31T13:54:49;20.50;99.90
37906;DHT22;23739;51.448;6.674;2022-10-31T13:59:56;20.40;99.90
37906;DHT22;23739;51.448;6.674;2022-10-31T14:02:32;20.40;99.90
37906;DHT22;23739;51.448;6.674;2022-10-31T14:05:05;20.30;99.90
37906;DHT22;23739;51.448;6.674;2022-10-31T14:07:32;20.20;99.90
37906;DHT22;23739;51.448;6.674;2022-10-31T14:10:36;20.20;99.90
37906;DHT22;23739;51.448;6.674;2022-10-31T14:13:15;20.30;99.90
37906;DHT22;23739;51.448;6.674;2022-10-31T14:15:54;20.40;99.90
37906;DHT22;23739;51.448;6.674;2022-10-31T14:18:30;20.30;99.90
37906;DHT22;23739;51.448;6.674;2022-10-31T14:20:56;20.40;99.90
37906;DHT22;23739;51.448;6.674;2022-10-31T14:23:36;20.30;99.90
37906;DHT22;23739;51.448;6.674;2022-10-31T14:28:56;20.10;99.90
37906;DHT22;23739;51.448;6.674;2022-10-31T14:31:41;20.00;99.90
37906;DHT22;23739;51.448;6.674;2022-10-31T14:34:36;20.10;99.90
37906;DHT22;23739;51.448;6.674;2022-10-31T14:51:44;20.00;99.90
37906;DHT22;23739;51.448;6.674;2022-10-31T14:54:15;19.90;99.90
37906;DHT22;23739;51.448;6.674;2022-10-31T14:56:57;19.80;99.90
37906;DHT22;23739;51.448;6.674;2022-10-31T14:59:28;19.90;99.90
37906;DHT22;23739;51.448;6.674;2022-10-31T15:02:13;19.90;99.90
37906;DHT22;23739;51.448;6.674;2022-10-31T15:04:40;19.90;99.90
37906;DHT22;23739;51.448;6.674;2022-10-31T15:07:21;19.80;99.90
37906;DHT22;23739;51.448;6.674;2022-10-31T15:09:58;19.70;99.90
37906;DHT22;23739;51.448;6.674;2022-10-31T15:14:53;19.70;99.90
37906;DHT22;23739;51.448;6.674;2022-10-31T15:17:20;19.70;99.90
37906;DHT22;23739;51.448;6.674;2022-10-31T15:19:47;19.60;99.90
37906;DHT22;23739;51.448;6.674;2022-10-31T15:22:17;19.50;99.90
37906;DHT22;23739;51.448;6.674;2022-10-31T15:24:44;19.40;99.90
37906;DHT22;23739;51.448;6.674;2022-10-31T15:27:17;19.40;99.90
37906;DHT22;23739;51.448;6.674;2022-10-31T15:29:54;19.30;99.90
37906;DHT22;23739;51.448;6.674;2022-10-31T15:32:26;19.10;99.90
37906;DHT22;23739;51.448;6.674;2022-10-31T15:34:54;19.00;99.90
37906;DHT22;23739;51.448;6.674;2022-10-31T15:37:24;19.00;99.90
37906;DHT22;23739;51.448;6.674;2022-10-31T15:39:51;18.90;99.90
37906;DHT22;23739;51.448;6.674;2022-10-31T15:42:39;18.90;99.90
37906;DHT22;23739;51.448;6.674;2022-10-31T15:47:36;18.60;99.90
37906;DHT22;23739;51.448;6.674;2022-10-31T15:50:05;18.60;99.90
37906;DHT22;23739;51.448;6.674;2022-10-31T15:52:43;18.60;99.90
37906;DHT22;23739;51.448;6.674;2022-10-31T15:57:43;18.40;99.90
37906;DHT22;23739;51.448;6.674;2022-10-31T16:00:32;18.40;99.90
37906;DHT22;23739;51.448;6.674;2022-10-31T16:05:37;18.30;99.90
37906;DHT22;23739;51.448;6.674;2022-10-31T16:08:04;18.20;99.90
37906;DHT22;23739;51.448;6.674;2022-10-31T16:10:33;18.10;99.90
37906;DHT22;23739;51.448;6.674;2022-10-31T16:13:02;18.10;99.90
37906;DHT22;23739;51.448;6.674;2022-10-31T16:15:28;18.00;99.90
37906;DHT22;23739;51.448;6.674;2022-10-31T16:17:56;18.00;99.90
37906;DHT22;23739;51.448;6.674;2022-10-31T16:20:27;18.00;99.90
37906;DHT22;23739;51.448;6.674;2022-10-31T16:22:58;18.00;99.90
37906;DHT22;23739;51.448;6.674;2022-10-31T16:25:27;18.00;99.90
37906;DHT22;23739;51.448;6.674;2022-10-31T16:28:00;18.00;99.90
37906;DHT22;23739;51.448;6.674;2022-10-31T16:30:42;17.90;99.90
37906;DHT22;23739;51.448;6.674;2022-10-31T16:35:54;17.70;99.90
37906;DHT22;23739;51.448;6.674;2022-10-31T16:38:21;17.50;99.90
37906;DHT22;23739;51.448;6.674;2022-10-31T16:40:46;17.50;99.90
37906;DHT22;23739;51.448;6.674;2022-10-31T16:43:14;17.40;99.90
37906;DHT22;23739;51.448;6.674;2022-10-31T16:45:44;17.30;99.90
37906;DHT22;23739;51.448;6.674;2022-10-31T16:48:19;17.20;99.90
37906;DHT22;23739;51.448;6.674;2022-10-31T16:50:47;17.00;99.90
37906;DHT22;23739;51.448;6.674;2022-10-31T16:53:14;16.90;99.90
37906;DHT22;23739;51.448;6.674;2022-10-31T16:55:54;16.80;99.90
37906;DHT22;23739;51.448;6.674;2022-10-31T16:58:29;16.70;99.90
37906;DHT22;23739;51.448;6.674;2022-10-31T17:00:56;16.60;99.90
37906;DHT22;23739;51.448;6.674;2022-10-31T17:03:22;16.50;99.90
37906;DHT22;23739;51.448;6.674;2022-10-31T17:05:48;16.50;99.90
37906;DHT22;23739;51.448;6.674;2022-10-31T17:08:14;16.40;99.90
37906;DHT22;23739;51.448;6.674;2022-10-31T17:10:41;16.30;99.90
37906;DHT22;23739;51.448;6.674;2022-10-31T17:13:14;16.30;99.90
37906;DHT22;23739;51.448;6.674;2022-10-31T17:15:43;16.40;99.90
37906;DHT22;23739;51.448;6.674;2022-10-31T17:18:13;16.60;99.90
37906;DHT22;23739;51.448;6.674;2022-10-31T17:20:40;16.80;99.90
37906;DHT22;23739;51.448;6.674;2022-10-31T17:23:10;16.80;99.90
37906;DHT22;23739;51.448;6.674;2022-10-31T17:25:37;16.90;99.90
37906;DHT22;23739;51.448;6.674;2022-10-31T17:28:04;17.00;99.90
37906;DHT22;23739;51.448;6.674;2022-10-31T17:30:31;17.10;99.90
37906;DHT22;23739;51.448;6.674;2022-10-31T17:32:57;17.10;99.90
37906;DHT22;23739;51.448;6.674;2022-10-31T17:35:23;17.00;99.90
37906;DHT22;23739;51.448;6.674;2022-10-31T17:37:49;17.10;99.90
37906;DHT22;23739;51.448;6.674;2022-10-31T17:40:19;17.00;99.90
37906;DHT22;23739;51.448;6.674;2022-10-31T17:42:54;17.00;99.90
37906;DHT22;23739;51.448;6.674;2022-10-31T17:45:22;17.10;99.90
37906;DHT22;23739;51.448;6.674;2022-10-31T17:47:49;17.10;99.90
37906;DHT22;23739;51.448;6.674;2022-10-31T17:50:17;17.10;99.90
37906;DHT22;23739;51.448;6.674;2022-10-31T17:52:44;17.10;99.90
37906;DHT22;23739;51.448;6.674;2022-10-31T17:55:10;17.10;99.90
37906;DHT22;23739;51.448;6.674;2022-10-31T17:57:36;17.10;99.90
37906;DHT22;23739;51.448;6.674;2022-10-31T18:00:08;17.00;99.90
37906;DHT22;23739;51.448;6.674;2022-10-31T18:02:35;17.10;99.90
37906;DHT22;23739;51.448;6.674;2022-10-31T18:05:02;17.10;99.90
37906;DHT22;23739;51.448;6.674;2022-10-31T18:07:28;17.10;99.90
37906;DHT22;23739;51.448;6.674;2022-10-31T18:09:54;17.10;99.90
37906;DHT22;23739;51.448;6.674;2022-10-31T18:12:21;17.20;99.90
37906;DHT22;23739;51.448;6.674;2022-10-31T18:14:47;17.30;99.90
37906;DHT22;23739;51.448;6.674;2022-10-31T18:17:13;17.40;99.90
37906;DHT22;23739;51.448;6.674;2022-10-31T18:19:39;17.20;99.90
37906;DHT22;23739;51.448;6.674;2022-10-31T18:22:05;17.20;99.90
37906;DHT22;23739;51.448;6.674;2022-10-31T18:24:31;17.30;99.90
37906;DHT22;23739;51.448;6.674;2022-10-31T18:26:57;17.50;99.90
37906;DHT22;23739;51.448;6.674;2022-10-31T18:29:23;17.50;99.90
37906;DHT22;23739;51.448;6.674;2022-10-31T18:31:49;17.50;99.90
37906;DHT22;23739;51.448;6.674;2022-10-31T18:34:17;17.60;99.90
37906;DHT22;23739;51.448;6.674;2022-10-31T18:36:44;17.80;99.90
37906;DHT22;23739;51.448;6.674;2022-10-31T18:39:10;17.80;99.90
37906;DHT22;23739;51.448;6.674;2022-10-31T18:41:37;17.80;99.90